Walkerton, Virginia
Current Conditions -  °F | °C
As of 2:55 PM on Thursday 30 Oct 2014 (Local Time) from KXSA Reporting Station
Clear Clear  
Wind Chill: 64°   Ceiling: Unl
Heat Index: 64°   Visibility: 10mi
Dew Point: 31°   Wind: 5mph
Humidity: 29%   Direction: 330°NNW
Pressure: 30.02"   Gusts: NA
Location:  37.73°N, 77.02°W
Report Text: KXSA 301855Z AUTO 33004KT 10SM CLR 18/00 A3002 RMK AO2 T01761005
Loading
Personal Weather Stations






























Interactive Weather Map
Tropical Storm Tracking
New forecast layout! Learn more

10-Day Weather Forecast

Advertisements
Track Severe Weather on mobile